Time;durP1;ratioP1;P1;durP2;ratioP2;P2;SDS_P1;SDS_P2;PMS_P1;PMS_P2;Temp;Humidity;BMP_temperature;BMP_pressure;BME280_temperature;BME280_humidity;BME280_pressure;Samples;Min_cycle;Max_cycle;Signal;HPM_P1;HPM_P2
2023/09/30 00:01:56;;;;;;;15.27;4.90;;;11.70;99.90;;;;;;5102079;28;20475;-44
2023/09/30 00:04:22;;;;;;;19.75;4.47;;;11.70;99.90;;;;;;5101089;28;20047;-47
2023/09/30 00:06:47;;;;;;;12.55;4.78;;;11.70;99.90;;;;;;5102661;28;20057;-48
2023/09/30 00:09:13;;;;;;;18.88;4.40;;;11.60;99.90;;;;;;5100854;28;20061;-45
2023/09/30 00:11:39;;;;;;;11.90;4.05;;;11.60;99.90;;;;;;5101384;28;20514;-45
2023/09/30 00:14:05;;;;;;;13.43;4.10;;;11.70;99.90;;;;;;5102753;28;20051;-45
2023/09/30 00:16:30;;;;;;;15.00;4.63;;;11.60;99.90;;;;;;5100929;28;20055;-46
2023/09/30 00:18:58;;;;;;;17.23;5.15;;;11.60;99.90;;;;;;5100600;28;20050;-45
2023/09/30 00:21:24;;;;;;;20.95;5.65;;;11.70;99.90;;;;;;5102003;28;20051;-45
2023/09/30 00:23:49;;;;;;;11.15;4.57;;;11.70;99.90;;;;;;5100769;28;20071;-46
2023/09/30 00:26:15;;;;;;;20.35;5.63;;;11.70;99.90;;;;;;5101088;28;20091;-44
2023/09/30 00:28:41;;;;;;;16.73;4.97;;;11.70;99.90;;;;;;5101854;28;20047;-44
2023/09/30 00:31:10;;;;;;;17.00;5.80;;;11.70;99.90;;;;;;5101232;28;20083;-46
2023/09/30 00:33:36;;;;;;;20.65;5.97;;;11.60;99.90;;;;;;5100240;28;20440;-46
2023/09/30 00:36:07;;;;;;;11.27;5.30;;;11.60;99.90;;;;;;5099984;28;20043;-45
2023/09/30 00:38:32;;;;;;;17.00;5.70;;;11.60;99.90;;;;;;5101627;28;20052;-45
2023/09/30 00:40:58;;;;;;;16.70;6.18;;;11.60;99.90;;;;;;5100921;28;20104;-45
2023/09/30 00:43:23;;;;;;;14.68;4.72;;;11.70;99.90;;;;;;5100611;28;20102;-45
2023/09/30 00:45:57;;;;;;;16.08;5.55;;;11.70;99.90;;;;;;5082641;28;20118;-45
2023/09/30 00:48:22;;;;;;;14.02;5.25;;;11.70;99.90;;;;;;5099116;28;20059;-45
2023/09/30 00:50:48;;;;;;;14.82;5.20;;;11.70;99.90;;;;;;5082310;28;20054;-46
2023/09/30 00:53:14;;;;;;;12.48;4.68;;;11.70;99.90;;;;;;5101398;28;20071;-45
2023/09/30 00:55:39;;;;;;;14.05;4.20;;;11.70;99.90;;;;;;5100289;28;20047;-44
2023/09/30 00:58:06;;;;;;;16.52;4.65;;;11.70;99.90;;;;;;5101735;28;20201;-45
2023/09/30 01:00:32;;;;;;;11.93;4.35;;;11.70;99.90;;;;;;5101228;28;20176;-44
2023/09/30 01:03:03;;;;;;;14.30;4.35;;;11.80;99.90;;;;;;5088518;28;20464;-45
2023/09/30 01:05:30;;;;;;;14.75;3.75;;;11.80;99.90;;;;;;5100001;28;20525;-45
2023/09/30 01:07:55;;;;;;;12.25;4.03;;;11.80;99.90;;;;;;5099987;28;20122;-45
2023/09/30 01:10:21;;;;;;;15.85;3.60;;;11.80;99.90;;;;;;5099487;28;20054;-45
2023/09/30 01:12:47;;;;;;;16.80;4.45;;;11.80;99.90;;;;;;5101905;28;20039;-47
2023/09/30 01:15:12;;;;;;;15.48;4.90;;;11.90;99.90;;;;;;5100138;28;20055;-44
2023/09/30 01:17:38;;;;;;;14.52;3.85;;;11.90;99.90;;;;;;5101666;28;20091;-46
2023/09/30 01:20:08;;;;;;;14.90;4.30;;;11.90;99.90;;;;;;5101246;28;20039;-45
2023/09/30 01:22:34;;;;;;;11.48;3.55;;;11.90;99.90;;;;;;5101526;28;20079;-46
2023/09/30 01:24:59;;;;;;;14.13;4.03;;;11.90;99.90;;;;;;5100074;28;20574;-46
2023/09/30 01:27:25;;;;;;;9.57;3.97;;;11.90;99.90;;;;;;5101498;28;20600;-46
2023/09/30 01:29:51;;;;;;;14.85;4.55;;;11.90;99.90;;;;;;5082920;28;20044;-45
2023/09/30 01:32:16;;;;;;;15.38;3.75;;;11.90;99.90;;;;;;5100735;28;20127;-46
2023/09/30 01:34:42;;;;;;;15.60;4.38;;;11.90;99.90;;;;;;5134625;27;20051;-46
2023/09/30 01:37:07;;;;;;;9.35;4.03;;;11.90;99.90;;;;;;5083025;28;20411;-47
2023/09/30 01:39:33;;;;;;;15.45;3.70;;;11.90;99.90;;;;;;5100665;28;20542;-45
2023/09/30 01:41:59;;;;;;;11.73;3.90;;;11.90;99.90;;;;;;5098405;28;20043;-47
2023/09/30 01:44:25;;;;;;;10.55;4.70;;;11.80;99.90;;;;;;5099132;28;20304;-44
2023/09/30 01:46:51;;;;;;;15.73;4.50;;;11.70;99.90;;;;;;5081852;28;20381;-43
2023/09/30 01:49:20;;;;;;;16.23;4.82;;;11.70;99.90;;;;;;5100691;28;20076;-47
2023/09/30 01:51:45;;;;;;;14.38;4.55;;;11.60;99.90;;;;;;5100465;28;20402;-44
2023/09/30 01:54:11;;;;;;;9.38;3.97;;;11.60;99.90;;;;;;5099191;28;20039;-45
2023/09/30 01:56:37;;;;;;;10.95;4.43;;;11.60;99.90;;;;;;5098964;28;20525;-45
2023/09/30 01:59:02;;;;;;;11.50;4.75;;;11.60;99.90;;;;;;5097639;28;20059;-46
2023/09/30 02:01:28;;;;;;;13.60;4.40;;;11.60;99.90;;;;;;5095596;28;20689;-45
2023/09/30 02:03:53;;;;;;;13.55;5.03;;;11.60;99.90;;;;;;5086300;28;20376;-47
2023/09/30 02:06:19;;;;;;;17.58;5.88;;;11.60;99.90;;;;;;5099449;28;20035;-49
2023/09/30 02:08:45;;;;;;;16.60;5.40;;;11.70;99.90;;;;;;5099482;28;20043;-45
2023/09/30 02:11:13;;;;;;;11.75;4.97;;;11.70;99.90;;;;;;5100053;28;20062;-46
2023/09/30 02:13:39;;;;;;;16.65;5.45;;;11.80;99.90;;;;;;5099747;28;20047;-44
2023/09/30 02:16:05;;;;;;;12.27;4.82;;;11.80;99.90;;;;;;5100994;28;20032;-45
2023/09/30 02:18:32;;;;;;;12.18;5.22;;;11.90;99.90;;;;;;5099881;28;20125;-45
2023/09/30 02:20:59;;;;;;;20.75;5.68;;;11.90;99.90;;;;;;5100251;28;20039;-46
2023/09/30 02:23:25;;;;;;;18.70;6.22;;;11.90;99.90;;;;;;5101165;28;20052;-45
2023/09/30 02:25:50;;;;;;;12.20;5.70;;;11.90;99.90;;;;;;5100595;28;20184;-48
2023/09/30 02:28:16;;;;;;;17.42;5.85;;;11.90;99.90;;;;;;5100778;28;20043;-45
2023/09/30 02:30:42;;;;;;;18.30;6.00;;;12.00;99.90;;;;;;5099648;28;20532;-44
2023/09/30 02:33:08;;;;;;;16.23;5.43;;;12.00;99.90;;;;;;5100173;28;20038;-43
2023/09/30 02:35:33;;;;;;;14.85;5.88;;;12.00;99.90;;;;;;5098629;28;20487;-43
2023/09/30 02:38:00;;;;;;;13.93;6.05;;;12.10;99.90;;;;;;5098789;28;20043;-44
2023/09/30 02:40:25;;;;;;;16.08;5.85;;;12.10;99.90;;;;;;5099278;28;20636;-45
2023/09/30 02:42:52;;;;;;;18.25;6.88;;;12.20;99.90;;;;;;5099823;28;20039;-45
2023/09/30 02:45:17;;;;;;;13.05;6.63;;;12.20;99.90;;;;;;5100346;28;20377;-45
2023/09/30 02:47:43;;;;;;;16.73;7.32;;;12.30;99.90;;;;;;5100121;28;20047;-45
2023/09/30 02:50:13;;;;;;;21.40;7.85;;;12.30;99.90;;;;;;5099385;28;20039;-48
2023/09/30 02:52:40;;;;;;;16.85;7.55;;;12.40;99.90;;;;;;5100355;28;20105;-48
2023/09/30 02:55:11;;;;;;;21.27;7.63;;;12.40;99.90;;;;;;5100095;28;20138;-45
2023/09/30 02:57:37;;;;;;;20.00;7.18;;;12.40;99.90;;;;;;5098474;28;20451;-48
2023/09/30 03:00:32;;;;;;;17.90;7.15;;;12.30;99.90;;;;;;5098064;28;20047;-47
2023/09/30 03:02:55;;;;;;;18.95;7.68;;;12.40;99.90;;;;;;5086025;28;20245;-45
2023/09/30 03:05:21;;;;;;;18.42;6.85;;;12.40;99.90;;;;;;5100224;28;20047;-47
2023/09/30 03:07:47;;;;;;;15.02;6.13;;;12.40;99.90;;;;;;5081723;28;20120;-46
2023/09/30 03:10:20;;;;;;;17.33;7.57;;;12.40;99.90;;;;;;5098838;28;20039;-48
2023/09/30 03:12:49;;;;;;;20.73;8.00;;;12.30;99.90;;;;;;5098435;28;20128;-45
2023/09/30 03:15:15;;;;;;;19.15;7.57;;;12.30;99.90;;;;;;5099848;28;20277;-46
2023/09/30 03:17:41;;;;;;;15.40;7.93;;;12.20;99.90;;;;;;5099548;28;20122;-47
2023/09/30 03:20:11;;;;;;;14.18;8.32;;;12.20;99.90;;;;;;5099019;28;20431;-45
2023/09/30 03:22:40;;;;;;;19.50;8.38;;;12.20;99.90;;;;;;5099958;28;20186;-47
2023/09/30 03:25:07;;;;;;;21.00;8.52;;;12.20;99.90;;;;;;5098505;28;20027;-46
2023/09/30 03:27:33;;;;;;;21.25;8.32;;;12.10;99.90;;;;;;5099798;28;20375;-46
2023/09/30 03:30:01;;;;;;;17.15;8.30;;;12.10;99.90;;;;;;5098395;28;20054;-45
2023/09/30 03:32:27;;;;;;;28.38;9.05;;;12.00;99.90;;;;;;5098213;28;20054;-45
2023/09/30 03:34:53;;;;;;;19.83;9.30;;;12.00;99.90;;;;;;5100145;28;20179;-46
2023/09/30 03:37:19;;;;;;;22.08;8.43;;;11.90;99.90;;;;;;5099672;28;20043;-45
2023/09/30 03:39:49;;;;;;;18.90;9.43;;;11.90;99.90;;;;;;5098446;28;20058;-45
2023/09/30 03:42:14;;;;;;;19.88;8.18;;;11.80;99.90;;;;;;5098633;28;20111;-46
2023/09/30 03:44:41;;;;;;;21.52;8.73;;;11.80;99.90;;;;;;5098427;28;20047;-46
2023/09/30 03:47:08;;;;;;;19.20;9.13;;;11.80;99.90;;;;;;5081582;28;20478;-48
2023/09/30 03:49:33;;;;;;;18.98;8.65;;;11.70;99.90;;;;;;5099349;28;20074;-48
2023/09/30 03:51:59;;;;;;;31.48;9.40;;;11.70;99.90;;;;;;5097221;28;20049;-47
2023/09/30 03:54:24;;;;;;;18.88;9.10;;;11.70;99.90;;;;;;5132414;27;20506;-45
2023/09/30 03:56:50;;;;;;;19.27;9.00;;;11.60;99.90;;;;;;5080731;28;20345;-47
2023/09/30 03:59:16;;;;;;;18.45;9.60;;;11.70;99.90;;;;;;5099330;28;20047;-47
2023/09/30 04:01:42;;;;;;;20.23;9.25;;;11.70;99.90;;;;;;5092276;28;20059;-45
2023/09/30 04:04:09;;;;;;;23.25;9.88;;;11.70;99.90;;;;;;5096476;28;20059;-47
2023/09/30 04:06:38;;;;;;;24.52;11.05;;;11.70;99.90;;;;;;5098119;28;20036;-45
2023/09/30 04:09:09;;;;;;;21.90;10.48;;;11.70;99.90;;;;;;5098506;28;20560;-46
2023/09/30 04:11:38;;;;;;;18.42;9.50;;;11.60;99.90;;;;;;5098546;28;20052;-46
2023/09/30 04:14:06;;;;;;;20.40;9.93;;;11.70;99.90;;;;;;5098843;28;20044;-45
2023/09/30 04:16:32;;;;;;;24.73;10.45;;;11.60;99.90;;;;;;5097446;28;20078;-45
2023/09/30 04:18:58;;;;;;;23.45;9.88;;;11.70;99.90;;;;;;5079555;28;20154;-45
2023/09/30 04:21:23;;;;;;;27.00;10.10;;;11.60;99.90;;;;;;5098232;28;20036;-44
2023/09/30 04:23:49;;;;;;;23.17;10.75;;;11.60;99.90;;;;;;5101990;28;20047;-44
2023/09/30 04:26:15;;;;;;;23.23;9.43;;;11.60;99.90;;;;;;5102505;28;20044;-44
2023/09/30 04:28:41;;;;;;;25.13;10.88;;;11.60;99.90;;;;;;5101234;28;20426;-44
2023/09/30 04:31:07;;;;;;;22.17;9.65;;;11.60;99.90;;;;;;5088378;28;20044;-46
2023/09/30 04:33:35;;;;;;;17.50;10.32;;;11.60;99.90;;;;;;5102115;28;20167;-44
2023/09/30 04:36:01;;;;;;;21.15;10.10;;;11.60;99.90;;;;;;5100337;28;20058;-44
2023/09/30 04:38:27;;;;;;;20.95;10.23;;;11.60;99.90;;;;;;5101794;28;20324;-44
2023/09/30 04:40:54;;;;;;;18.58;9.23;;;11.50;99.90;;;;;;5101302;28;20121;-45
2023/09/30 04:43:23;;;;;;;15.90;8.90;;;11.50;99.90;;;;;;5101239;28;20054;-45
2023/09/30 04:45:52;;;;;;;16.50;9.10;;;11.50;99.90;;;;;;5102045;27;20513;-45
2023/09/30 04:48:18;;;;;;;24.48;10.55;;;11.50;99.90;;;;;;5101878;28;20527;-45
2023/09/30 04:50:43;;;;;;;20.60;10.27;;;11.40;99.90;;;;;;5099932;28;20043;-46
2023/09/30 04:53:09;;;;;;;23.75;11.30;;;11.40;99.90;;;;;;5101998;28;20096;-46
2023/09/30 04:55:37;;;;;;;17.80;9.80;;;11.40;99.90;;;;;;5102147;28;20803;-45
2023/09/30 04:58:04;;;;;;;23.67;10.50;;;11.40;99.90;;;;;;5101867;28;20044;-45
2023/09/30 05:00:30;;;;;;;28.40;10.75;;;11.30;99.90;;;;;;5099863;28;20054;-44
2023/09/30 05:02:56;;;;;;;18.38;10.68;;;11.30;99.90;;;;;;5101759;28;20035;-45
2023/09/30 05:05:22;;;;;;;21.05;10.73;;;11.20;99.90;;;;;;5101398;28;20180;-44
2023/09/30 05:07:48;;;;;;;28.02;10.32;;;11.20;99.90;;;;;;5101492;28;20066;-45
2023/09/30 05:10:15;;;;;;;21.33;10.88;;;11.20;99.90;;;;;;5100581;28;20050;-45
2023/09/30 05:12:45;;;;;;;24.50;11.60;;;11.10;99.90;;;;;;5100143;28;20050;-44
2023/09/30 05:15:12;;;;;;;24.02;11.70;;;11.10;99.90;;;;;;5103894;27;20059;-44
2023/09/30 05:17:38;;;;;;;25.10;11.70;;;11.10;99.90;;;;;;5082865;28;20553;-45
2023/09/30 05:20:06;;;;;;;19.90;11.82;;;11.00;99.90;;;;;;5100884;28;20047;-46
2023/09/30 05:22:33;;;;;;;22.75;11.30;;;11.00;99.90;;;;;;5101363;28;20487;-44
2023/09/30 05:24:59;;;;;;;26.95;12.32;;;11.00;99.90;;;;;;5099822;28;20448;-44
2023/09/30 05:27:24;;;;;;;26.05;12.15;;;10.90;99.90;;;;;;5099748;28;20479;-44
2023/09/30 05:29:50;;;;;;;20.58;11.55;;;10.90;99.90;;;;;;5100309;28;20058;-44
2023/09/30 05:32:16;;;;;;;20.88;12.40;;;10.90;99.90;;;;;;5063581;28;20141;-48
2023/09/30 05:34:41;;;;;;;19.60;11.73;;;10.90;99.90;;;;;;5098889;28;20542;-45
2023/09/30 05:37:07;;;;;;;22.83;12.23;;;10.90;99.90;;;;;;5100606;28;20086;-44
2023/09/30 05:39:32;;;;;;;25.70;13.30;;;10.80;99.90;;;;;;5100530;28;20395;-44
2023/09/30 05:41:58;;;;;;;24.45;11.57;;;10.80;99.90;;;;;;5100111;28;20115;-45
2023/09/30 05:44:26;;;;;;;19.58;11.23;;;10.80;99.90;;;;;;5101458;28;20051;-45
2023/09/30 05:46:51;;;;;;;16.67;11.25;;;10.80;99.90;;;;;;5099667;28;20043;-44
2023/09/30 05:49:19;;;;;;;18.35;12.27;;;10.80;99.90;;;;;;5099742;28;20125;-43
2023/09/30 05:51:46;;;;;;;23.48;13.40;;;10.70;99.90;;;;;;5099463;28;20051;-45
2023/09/30 05:54:11;;;;;;;23.55;13.02;;;10.80;99.90;;;;;;5082555;28;20277;-44
2023/09/30 05:56:38;;;;;;;23.67;13.30;;;10.80;99.90;;;;;;5099144;28;20051;-45
2023/09/30 05:59:05;;;;;;;22.65;11.95;;;10.80;99.90;;;;;;5100627;28;20305;-45
2023/09/30 06:01:33;;;;;;;23.15;13.10;;;10.80;99.90;;;;;;5098457;28;20309;-45
2023/09/30 06:04:00;;;;;;;24.58;13.70;;;10.80;99.90;;;;;;5089688;28;20804;-46
2023/09/30 06:06:29;;;;;;;25.00;13.35;;;10.80;99.90;;;;;;5099930;28;20480;-44
2023/09/30 06:08:58;;;;;;;23.70;13.82;;;10.90;99.90;;;;;;5099834;28;20051;-44
2023/09/30 06:11:29;;;;;;;23.13;14.43;;;11.10;99.90;;;;;;5132690;27;20101;-45
2023/09/30 06:13:55;;;;;;;17.90;12.98;;;11.30;99.90;;;;;;5100012;28;20061;-46
2023/09/30 06:16:23;;;;;;;20.67;13.68;;;11.70;99.90;;;;;;5097711;28;20410;-46
2023/09/30 06:18:49;;;;;;;22.25;13.90;;;11.90;99.90;;;;;;5099789;28;20050;-48
2023/09/30 06:21:17;;;;;;;19.05;13.48;;;12.20;99.90;;;;;;5098646;28;20173;-45
2023/09/30 06:23:43;;;;;;;20.67;12.55;;;12.50;99.90;;;;;;5096515;28;20550;-45
2023/09/30 06:26:09;;;;;;;19.48;12.38;;;12.80;99.90;;;;;;5099233;28;20043;-45
2023/09/30 06:28:40;;;;;;;21.33;11.77;;;13.00;99.90;;;;;;5099427;28;20485;-45
2023/09/30 06:31:07;;;;;;;16.45;12.15;;;13.20;99.90;;;;;;5078365;28;20095;-45
2023/09/30 06:33:34;;;;;;;18.95;11.75;;;13.30;99.90;;;;;;5080435;28;20040;-45
2023/09/30 06:36:02;;;;;;;19.17;11.55;;;13.40;99.90;;;;;;5097781;28;20051;-44
2023/09/30 06:38:27;;;;;;;21.95;12.25;;;13.40;99.90;;;;;;5097222;28;20119;-45
2023/09/30 06:40:53;;;;;;;19.45;11.63;;;13.40;99.90;;;;;;5099093;28;20039;-45
2023/09/30 06:43:19;;;;;;;18.30;11.05;;;13.50;99.90;;;;;;5097654;28;20059;-45
2023/09/30 06:45:46;;;;;;;17.55;12.43;;;13.60;99.90;;;;;;5098860;28;20048;-45
2023/09/30 06:48:12;;;;;;;19.38;11.23;;;13.70;99.90;;;;;;5098874;28;20114;-44
2023/09/30 06:50:46;;;;;;;17.83;11.32;;;13.80;99.90;;;;;;5097309;28;20109;-46
2023/09/30 06:53:11;;;;;;;;;;;13.90;99.90;;;;;;5099389;28;20513;-45
2023/09/30 06:55:41;;;;;;;16.73;11.27;;;14.00;99.90;;;;;;5098081;28;19920;-46
2023/09/30 06:58:10;;;;;;;17.25;11.50;;;14.10;99.90;;;;;;5098583;28;20123;-45
2023/09/30 07:00:41;;;;;;;18.90;10.50;;;14.20;99.90;;;;;;5095015;28;20054;-48
2023/09/30 07:03:09;;;;;;;17.42;11.63;;;14.40;99.90;;;;;;5098049;28;20068;-46
2023/09/30 07:05:35;;;;;;;20.38;11.80;;;14.50;99.90;;;;;;5096757;28;20870;-48
2023/09/30 07:08:01;;;;;;;18.52;10.95;;;14.60;99.90;;;;;;5097532;28;20415;-48
2023/09/30 07:10:29;;;;;;;17.45;11.48;;;14.70;99.90;;;;;;5097281;28;20144;-46
2023/09/30 07:12:55;;;;;;;17.85;10.77;;;14.80;99.90;;;;;;5097091;28;20360;-45
2023/09/30 07:15:20;;;;;;;17.42;11.13;;;15.00;99.90;;;;;;5099276;28;20455;-47
2023/09/30 07:17:47;;;;;;;20.17;12.80;;;15.10;99.90;;;;;;5099112;28;20123;-47
2023/09/30 07:20:13;;;;;;;15.13;10.98;;;15.20;99.90;;;;;;5097929;28;20126;-45
2023/09/30 07:22:39;;;;;;;21.42;12.45;;;15.30;99.90;;;;;;5098935;28;20760;-47
2023/09/30 07:25:05;;;;;;;15.65;12.05;;;15.40;99.90;;;;;;5097614;28;20044;-45
2023/09/30 07:27:31;;;;;;;19.65;11.38;;;15.40;99.90;;;;;;5099427;28;20055;-49
2023/09/30 07:29:57;;;;;;;18.10;11.63;;;15.50;99.90;;;;;;5098363;28;20458;-46
2023/09/30 07:32:23;;;;;;;19.60;10.90;;;15.60;99.90;;;;;;5098086;28;20047;-45
2023/09/30 07:34:49;;;;;;;16.27;10.52;;;15.60;99.90;;;;;;5098346;28;20048;-49
2023/09/30 07:37:17;;;;;;;21.63;11.35;;;15.70;99.90;;;;;;5096530;28;20140;-46
2023/09/30 07:39:43;;;;;;;20.92;12.25;;;15.60;99.90;;;;;;5095994;28;20436;-44
2023/09/30 07:42:11;;;;;;;19.02;11.02;;;15.70;99.90;;;;;;5094467;28;20160;-45
2023/09/30 07:44:37;;;;;;;18.02;11.07;;;15.80;99.90;;;;;;5096221;28;20573;-46
2023/09/30 07:47:06;;;;;;;17.50;11.60;;;15.90;99.90;;;;;;5098025;28;20450;-45
2023/09/30 07:49:32;;;;;;;14.38;10.93;;;16.00;99.90;;;;;;5099184;28;20126;-46
2023/09/30 07:51:58;;;;;;;18.50;11.70;;;16.10;99.90;;;;;;5095776;28;20045;-44
2023/09/30 07:54:24;;;;;;;14.88;10.23;;;16.20;99.90;;;;;;5097826;28;20309;-45
2023/09/30 07:56:49;;;;;;;19.42;11.43;;;16.30;99.90;;;;;;5098433;28;20508;-47
2023/09/30 07:59:15;;;;;;;17.45;10.95;;;16.30;99.90;;;;;;5072265;28;20047;-46
2023/09/30 08:01:41;;;;;;;19.38;12.48;;;16.50;99.90;;;;;;5097848;28;20472;-45
2023/09/30 08:04:07;;;;;;;17.45;11.45;;;16.40;99.90;;;;;;5074457;28;20055;-46
2023/09/30 08:06:32;;;;;;;21.70;11.48;;;16.60;99.90;;;;;;5102820;28;20036;-46
2023/09/30 08:08:58;;;;;;;17.95;11.70;;;16.60;99.90;;;;;;5102064;28;20035;-48
2023/09/30 08:11:27;;;;;;;18.77;11.60;;;16.70;99.90;;;;;;5101433;28;20924;-47
2023/09/30 08:13:53;;;;;;;18.58;11.35;;;16.80;99.90;;;;;;5102026;28;20543;-47
2023/09/30 08:16:19;;;;;;;15.95;10.35;;;16.90;99.90;;;;;;5102072;28;20291;-46
2023/09/30 08:18:45;;;;;;;17.13;10.98;;;17.00;99.90;;;;;;5102003;28;20065;-45
2023/09/30 08:21:11;;;;;;;18.77;11.35;;;17.00;99.90;;;;;;5099859;28;20039;-45
2023/09/30 08:23:38;;;;;;;15.93;10.68;;;17.10;99.90;;;;;;5100807;28;20035;-50
2023/09/30 08:26:05;;;;;;;16.05;10.65;;;17.10;99.90;;;;;;5101991;28;20047;-45
2023/09/30 08:28:31;;;;;;;15.32;10.02;;;17.10;99.90;;;;;;5100053;28;20044;-48
2023/09/30 08:31:05;;;;;;;19.15;10.98;;;17.30;99.90;;;;;;5082928;28;20027;-47
2023/09/30 08:33:31;;;;;;;15.07;10.32;;;17.30;99.90;;;;;;5100697;28;20035;-45
2023/09/30 08:36:06;;;;;;;16.75;10.27;;;17.30;99.90;;;;;;5100264;28;20039;-48
2023/09/30 08:38:33;;;;;;;18.42;10.20;;;17.40;99.90;;;;;;5101522;28;20040;-50
2023/09/30 08:40:59;;;;;;;16.50;9.40;;;17.40;99.90;;;;;;5086861;28;20043;-49
2023/09/30 08:43:30;;;;;;;15.35;8.95;;;17.60;99.90;;;;;;5099817;28;20119;-46
2023/09/30 08:45:57;;;;;;;16.30;9.75;;;17.60;99.90;;;;;;5100627;28;20399;-49
2023/09/30 08:48:43;;;;;;;16.67;9.70;;;17.70;99.90;;;;;;5101277;28;20120;-48
2023/09/30 08:51:09;;;;;;;15.30;10.63;;;17.70;99.90;;;;;;5100649;28;20066;-46
2023/09/30 08:53:35;;;;;;;14.85;9.27;;;17.60;99.90;;;;;;5101708;28;20577;-48
2023/09/30 08:56:04;;;;;;;20.02;10.55;;;17.50;99.90;;;;;;5100605;28;20047;-47
2023/09/30 08:58:30;;;;;;;17.27;9.80;;;17.40;99.90;;;;;;5100761;28;20469;-46
2023/09/30 09:00:56;;;;;;;15.93;9.95;;;17.30;99.90;;;;;;5101234;28;20571;-48
2023/09/30 09:03:22;;;;;;;20.50;9.27;;;17.30;99.90;;;;;;5088685;28;20040;-49
2023/09/30 09:05:57;;;;;;;15.40;9.23;;;17.30;99.90;;;;;;5100948;28;20115;-48
2023/09/30 09:08:25;;;;;;;16.20;9.77;;;17.30;99.90;;;;;;5101152;28;20035;-46
2023/09/30 09:10:59;;;;;;;16.67;9.15;;;17.40;99.90;;;;;;5099727;28;20040;-46
2023/09/30 09:13:26;;;;;;;16.20;9.13;;;17.50;99.90;;;;;;5100640;28;20035;-48
2023/09/30 09:16:08;;;;;;;16.98;8.48;;;17.60;99.90;;;;;;5100269;28;20081;-47
2023/09/30 09:18:35;;;;;;;12.45;8.30;;;17.70;99.90;;;;;;5065262;28;20059;-49
2023/09/30 09:21:09;;;;;;;12.60;8.25;;;17.80;99.90;;;;;;5098655;28;20051;-50
2023/09/30 09:23:43;;;;;;;11.90;6.75;;;17.90;99.90;;;;;;5098835;28;20374;-48
2023/09/30 09:26:28;;;;;;;11.27;6.18;;;18.00;99.90;;;;;;5100650;28;20289;-47
2023/09/30 09:29:13;;;;;;;35.08;11.70;;;18.10;99.90;;;;;;5100104;28;20035;-49
2023/09/30 09:31:38;;;;;;;16.48;5.70;;;18.20;99.90;;;;;;5100227;28;20042;-48
2023/09/30 09:34:14;;;;;;;15.35;4.53;;;18.30;99.90;;;;;;5100903;28;20031;-47
2023/09/30 09:36:41;;;;;;;16.65;4.70;;;18.40;99.90;;;;;;5098309;28;20054;-48
2023/09/30 09:39:07;;;;;;;10.32;4.10;;;18.40;99.90;;;;;;5098821;28;20043;-46
2023/09/30 09:41:48;;;;;;;16.30;6.30;;;18.50;99.90;;;;;;5098640;28;20082;-44
2023/09/30 09:44:14;;;;;;;12.13;4.45;;;18.50;99.90;;;;;;5100561;28;20053;-44
2023/09/30 09:46:40;;;;;;;12.00;4.53;;;18.50;99.90;;;;;;5100718;28;20868;-46
2023/09/30 09:49:06;;;;;;;14.80;4.93;;;18.50;99.90;;;;;;5099535;28;20047;-46
2023/09/30 09:51:32;;;;;;;12.20;3.63;;;18.50;99.90;;;;;;5099900;28;20044;-45
2023/09/30 09:53:58;;;;;;;6.43;2.80;;;18.60;99.90;;;;;;5064496;28;20772;-49
2023/09/30 09:56:24;;;;;;;7.90;2.72;;;18.80;99.90;;;;;;5098803;28;20058;-46
2023/09/30 09:58:50;;;;;;;8.13;2.80;;;18.90;99.90;;;;;;5099530;28;20060;-45
2023/09/30 10:01:16;;;;;;;10.23;2.72;;;18.90;99.90;;;;;;5099450;28;20046;-44
2023/09/30 10:03:42;;;;;;;12.27;3.30;;;19.20;99.90;;;;;;5085663;28;20043;-45
2023/09/30 10:06:08;;;;;;;10.02;2.42;;;19.40;99.90;;;;;;5098915;28;20036;-47
2023/09/30 10:08:42;;;;;;;9.20;3.08;;;19.60;99.90;;;;;;5099763;28;20836;-45
2023/09/30 10:11:09;;;;;;;9.80;3.83;;;19.60;99.90;;;;;;5098416;28;20054;-45
2023/09/30 10:13:55;;;;;;;10.00;3.55;;;19.70;99.90;;;;;;5099732;28;20028;-47
2023/09/30 10:16:36;;;;;;;9.35;3.38;;;19.70;99.90;;;;;;5098570;28;20040;-45
2023/09/30 10:19:08;;;;;;;9.00;2.90;;;19.70;99.90;;;;;;5097861;28;20051;-45
2023/09/30 10:21:34;;;;;;;10.85;3.30;;;19.50;99.90;;;;;;5098155;28;20040;-47
2023/09/30 10:24:25;;;;;;;9.38;3.20;;;19.50;99.90;;;;;;5099106;28;20755;-47
2023/09/30 10:27:22;;;;;;;7.18;3.15;;;19.40;99.90;;;;;;5099003;28;20040;-44
2023/09/30 10:29:49;;;;;;;8.13;3.33;;;19.10;99.90;;;;;;5097720;28;20052;-45
2023/09/30 10:32:15;;;;;;;6.95;2.45;;;19.10;99.90;;;;;;5098258;28;20051;-49
2023/09/30 10:34:52;;;;;;;9.93;3.60;;;19.00;99.90;;;;;;5098475;28;20044;-46
2023/09/30 10:37:24;;;;;;;7.25;3.38;;;19.10;99.90;;;;;;5099798;28;20046;-47
2023/09/30 10:39:59;;;;;;;6.70;2.78;;;19.20;99.90;;;;;;5099474;28;20044;-45
2023/09/30 10:42:49;;;;;;;8.80;3.15;;;19.30;99.90;;;;;;5098320;28;20039;-47
2023/09/30 10:45:44;;;;;;;9.07;3.65;;;19.40;99.90;;;;;;5096710;28;20070;-46
2023/09/30 10:48:25;;;;;;;8.55;2.70;;;19.40;99.90;;;;;;5096527;28;20171;-46
2023/09/30 10:50:55;;;;;;;4.63;1.83;;;19.30;99.90;;;;;;5097067;28;20042;-47
2023/09/30 10:53:21;;;;;;;6.60;2.83;;;19.40;99.90;;;;;;5099504;28;20040;-46
2023/09/30 10:55:54;;;;;;;13.82;2.92;;;19.40;99.90;;;;;;5098976;28;20383;-49
2023/09/30 10:58:20;;;;;;;10.43;3.05;;;19.30;99.90;;;;;;5096228;28;20067;-45
2023/09/30 11:00:55;;;;;;;8.23;2.53;;;19.30;99.90;;;;;;5080733;28;20051;-46
2023/09/30 11:03:21;;;;;;;7.15;1.90;;;19.40;99.90;;;;;;5096416;28;20039;-45
2023/09/30 11:05:54;;;;;;;11.05;2.97;;;19.40;99.90;;;;;;5096784;28;20039;-45
2023/09/30 11:08:22;;;;;;;7.93;2.65;;;19.50;99.90;;;;;;5098473;28;20112;-47
2023/09/30 11:10:52;;;;;;;6.15;1.92;;;19.70;99.90;;;;;;5097153;28;20518;-46
2023/09/30 11:13:18;;;;;;;8.75;2.22;;;19.80;99.90;;;;;;5080737;28;20167;-48
2023/09/30 11:15:45;;;;;;;6.70;2.17;;;19.70;99.90;;;;;;5099307;28;20061;-46
2023/09/30 11:18:15;;;;;;;9.55;2.40;;;19.60;99.90;;;;;;5097346;28;20048;-45
2023/09/30 11:20:41;;;;;;;9.68;3.13;;;19.60;99.90;;;;;;5098137;28;20047;-44
2023/09/30 11:23:07;;;;;;;8.27;2.10;;;19.50;99.90;;;;;;5078781;28;20494;-46
2023/09/30 11:25:39;;;;;;;6.50;2.25;;;19.40;99.90;;;;;;5097933;28;20122;-47
2023/09/30 11:28:18;;;;;;;11.05;2.75;;;19.30;99.90;;;;;;5097637;28;20054;-46
2023/09/30 11:30:54;;;;;;;6.57;2.22;;;19.30;99.90;;;;;;5094524;28;20129;-45
2023/09/30 11:33:22;;;;;;;10.52;2.53;;;19.40;99.90;;;;;;5096157;28;20043;-49
2023/09/30 11:35:58;;;;;;;7.38;2.45;;;19.40;99.90;;;;;;5101687;28;20277;-48
2023/09/30 11:38:24;;;;;;;6.53;2.30;;;19.40;99.90;;;;;;5094328;28;20057;-46
2023/09/30 11:41:06;;;;;;;9.68;2.83;;;19.50;99.90;;;;;;5102148;28;20163;-45
2023/09/30 11:43:35;;;;;;;6.85;2.25;;;19.50;99.90;;;;;;5134104;27;20099;-47
2023/09/30 11:46:08;;;;;;;7.70;2.20;;;19.60;99.90;;;;;;5102585;28;20052;-44
2023/09/30 11:48:35;;;;;;;7.32;2.63;;;19.60;99.90;;;;;;5102545;28;20051;-46
2023/09/30 11:51:02;;;;;;;9.45;2.72;;;19.50;99.90;;;;;;5100932;28;20105;-45
2023/09/30 11:53:35;;;;;;;10.63;2.75;;;19.40;99.90;;;;;;5102156;28;20039;-45
2023/09/30 11:56:02;;;;;;;10.18;2.83;;;19.50;99.90;;;;;;5103228;28;20043;-45
2023/09/30 11:58:32;;;;;;;7.18;2.45;;;19.60;99.90;;;;;;5100701;28;20055;-46
2023/09/30 12:01:02;;;;;;;5.97;2.38;;;19.70;99.90;;;;;;5102689;28;20478;-49
2023/09/30 12:03:27;;;;;;;6.70;2.42;;;19.60;99.90;;;;;;5088411;28;20036;-47
2023/09/30 12:05:55;;;;;;;6.30;2.58;;;19.70;99.90;;;;;;5102387;28;20128;-47
2023/09/30 12:08:22;;;;;;;8.07;2.65;;;19.80;99.90;;;;;;5083282;28;20500;-49
2023/09/30 12:10:48;;;;;;;8.35;2.63;;;19.90;99.90;;;;;;5102358;28;20047;-47
2023/09/30 12:13:15;;;;;;;10.02;2.50;;;19.80;99.90;;;;;;5100397;28;20031;-47
2023/09/30 12:15:41;;;;;;;5.90;2.90;;;19.80;99.90;;;;;;5102269;28;20485;-45
2023/09/30 12:18:06;;;;;;;9.95;2.50;;;19.80;99.90;;;;;;5099668;28;20508;-46
2023/09/30 12:20:33;;;;;;;7.93;2.60;;;19.70;99.90;;;;;;5101737;28;20035;-49
2023/09/30 12:22:59;;;;;;;6.55;2.63;;;19.80;99.90;;;;;;5099983;28;20040;-47
2023/09/30 12:25:25;;;;;;;6.90;2.20;;;19.90;99.90;;;;;;5100372;28;20535;-48
2023/09/30 12:27:51;;;;;;;8.60;2.58;;;20.10;99.90;;;;;;5100746;28;20043;-47
2023/09/30 12:30:20;;;;;;;7.28;2.97;;;20.20;99.90;;;;;;5101122;28;20054;-47
2023/09/30 12:32:45;;;;;;;7.82;2.80;;;20.20;99.90;;;;;;5101437;28;20648;-47
2023/09/30 12:35:11;;;;;;;12.18;3.22;;;20.20;99.90;;;;;;5099887;28;20050;-48
2023/09/30 12:37:38;;;;;;;9.77;3.13;;;20.10;99.90;;;;;;5099779;28;20040;-47
2023/09/30 12:40:07;;;;;;;9.68;2.85;;;20.10;99.90;;;;;;5099339;28;20039;-45